PWSweather.com
Personal Weather Stations
Station Observations
CALONGE
CalongeES 17251

CalongeES 17251

Lat: 41.85972222, Lon: 3.077777778

Elevation: 16

Station Type: Oregon WMR928N

www.calonge-meteoweb.com

High Low Average
Temperature 64.2°F17.9°C 45.0°F7.2°C 54.6°F12.6°C
Dew Point 35.8°F2.1°C 17.8°F-7.9°C 25.9°F-3.4°C
Winds 13.2 mph 21.2 kmh Calm Calm 6.0 mph W9.7 kmh W
Wind Gusts 22.9 mph36.9 kmh -- 12.0 mph19.3 kmh
Humidity 70% 18% 35%
Pressure 30.21 in1023.0 mb 30.07 in1018.3 mb -
Precipitation 0.00 in0.0 mm - -
Hour Temp Dew Point Humidity Winds Wind Gusts Pressure Precip Precip Rate Daily Precip Total
12:00 AM 54.5°F12.5°C 28.1°F-2.2°C 36% 10.0 mph NNW16.1 kmh NNW 20.2 mph32.5 kmh 30.07 in1018.3 mb 0.00 in0.0 mm 0.00 in0.0 mm 0.00 in0.0 mm
12:15 AM 54.5°F12.5°C 28.1°F-2.2°C 36% 7.6 mph NNW12.2 kmh NNW 19.6 mph31.5 kmh 30.07 in1018.3 mb 0.00 in0.0 mm 0.00 in0.0 mm 0.00 in0.0 mm
12:30 AM 54.3°F12.4°C 27.9°F-2.3°C 36% 8.2 mph NNW13.2 kmh NNW 13.8 mph22.2 kmh 30.07 in1018.3 mb 0.00 in0.0 mm 0.00 in0.0 mm 0.00 in0.0 mm
12:45 AM 54.1°F12.3°C 27.1°F-2.7°C 35% 8.2 mph NNW13.2 kmh NNW 20.2 mph32.5 kmh 30.07 in1018.3 mb 0.00 in0.0 mm 0.00 in0.0 mm 0.00 in0.0 mm
01:00 AM 54.0°F12.2°C 25.5°F-3.6°C 33% 10.0 mph NW16.1 kmh NW 17.3 mph27.8 kmh 30.09 in1019.0 mb 0.00 in0.0 mm 0.00 in0.0 mm 0.00 in0.0 mm
01:15 AM 54.0°F12.2°C 24.7°F-4.1°C 32% 9.4 mph NW15.1 kmh NW 19.0 mph30.6 kmh 30.09 in1019.0 mb 0.00 in0.0 mm 0.00 in0.0 mm 0.00 in0.0 mm
01:30 AM 54.0°F12.2°C 24.7°F-4.1°C 32% 9.4 mph NW15.1 kmh NW 19.6 mph31.5 kmh 30.09 in1019.0 mb 0.00 in0.0 mm 0.00 in0.0 mm 0.00 in0.0 mm
01:45 AM 53.8°F12.1°C 24.6°F-4.1°C 32% 10.0 mph NNW16.1 kmh NNW 16.7 mph26.9 kmh 30.09 in1019.0 mb 0.00 in0.0 mm 0.00 in0.0 mm 0.00 in0.0 mm
02:00 AM 53.6°F12.0°C 24.4°F-4.2°C 32% 7.6 mph NNW12.2 kmh NNW 15.5 mph24.9 kmh 30.09 in1019.0 mb 0.00 in0.0 mm 0.00 in0.0 mm 0.00 in0.0 mm
02:15 AM 53.4°F11.9°C 22.7°F-5.2°C 30% 13.2 mph NNW21.2 kmh NNW 20.8 mph33.5 kmh 30.09 in1019.0 mb 0.00 in0.0 mm 0.00 in0.0 mm 0.00 in0.0 mm
02:30 AM 53.1°F11.7°C 22.4°F-5.3°C 30% 6.4 mph NNW10.3 kmh NNW 22.9 mph36.9 kmh 30.09 in1019.0 mb 0.00 in0.0 mm 0.00 in0.0 mm 0.00 in0.0 mm
02:45 AM 52.9°F11.6°C 22.2°F-5.4°C 30% 7.0 mph NNW11.3 kmh NNW 21.4 mph34.4 kmh 30.09 in1019.0 mb 0.00 in0.0 mm 0.00 in0.0 mm 0.00 in0.0 mm
03:00 AM 52.7°F11.5°C 22.1°F-5.5°C 30% 8.8 mph NNW14.2 kmh NNW 16.7 mph26.9 kmh 30.09 in1019.0 mb 0.00 in0.0 mm 0.00 in0.0 mm 0.00 in0.0 mm
03:15 AM 52.5°F11.4°C 22.7°F-5.2°C 31% 8.2 mph N13.2 kmh N 20.8 mph33.5 kmh 30.09 in1019.0 mb 0.00 in0.0 mm 0.00 in0.0 mm 0.00 in0.0 mm
03:30 AM 52.3°F11.3°C 21.8°F-5.7°C 30% 10.0 mph NNW16.1 kmh NNW 22.3 mph35.9 kmh 30.07 in1018.3 mb 0.00 in0.0 mm 0.00 in0.0 mm 0.00 in0.0 mm
03:45 AM 52.2°F11.2°C 21.6°F-5.8°C 30% 6.4 mph NNW10.3 kmh NNW 16.1 mph25.9 kmh 30.07 in1018.3 mb 0.00 in0.0 mm 0.00 in0.0 mm 0.00 in0.0 mm
04:00 AM 52.2°F11.2°C 20.0°F-6.7°C 28% 8.2 mph NW13.2 kmh NW 14.4 mph23.2 kmh 30.07 in1018.3 mb 0.00 in0.0 mm 0.00 in0.0 mm 0.00 in0.0 mm
04:15 AM 52.3°F11.3°C 19.3°F-7.1°C 27% 8.8 mph NW14.2 kmh NW 20.2 mph32.5 kmh 30.07 in1018.3 mb 0.00 in0.0 mm 0.00 in0.0 mm 0.00 in0.0 mm
04:30 AM 52.3°F11.3°C 18.4°F-7.6°C 26% 13.2 mph NW21.2 kmh NW 19.0 mph30.6 kmh 30.07 in1018.3 mb 0.00 in0.0 mm 0.00 in0.0 mm 0.00 in0.0 mm
04:45 AM 52.3°F11.3°C 18.4°F-7.6°C 26% 4.7 mph NW7.6 kmh NW 16.7 mph26.9 kmh 30.07 in1018.3 mb 0.00 in0.0 mm 0.00 in0.0 mm 0.00 in0.0 mm
05:00 AM 52.3°F11.3°C 18.4°F-7.6°C 26% 7.0 mph NW11.3 kmh NW 17.3 mph27.8 kmh 30.09 in1019.0 mb 0.00 in0.0 mm 0.00 in0.0 mm 0.00 in0.0 mm
05:15 AM 52.3°F11.3°C 18.4°F-7.6°C 26% 10.0 mph W16.1 kmh W 22.0 mph35.4 kmh 30.09 in1019.0 mb 0.00 in0.0 mm 0.00 in0.0 mm 0.00 in0.0 mm
05:30 AM 52.2°F11.2°C 18.3°F-7.6°C 26% Calm Calm 11.4 mph18.3 kmh 30.09 in1019.0 mb 0.00 in0.0 mm 0.00 in0.0 mm 0.00 in0.0 mm
05:45 AM 52.0°F11.1°C 18.1°F-7.7°C 26% Calm Calm 11.4 mph18.3 kmh 30.09 in1019.0 mb 0.00 in0.0 mm 0.00 in0.0 mm 0.00 in0.0 mm
06:00 AM 51.8°F11.0°C 18.0°F-7.8°C 26% 2.9 mph NW4.7 kmh NW 10.0 mph16.1 kmh 30.12 in1020.0 mb 0.00 in0.0 mm 0.00 in0.0 mm 0.00 in0.0 mm
06:15 AM 51.6°F10.9°C 17.8°F-7.9°C 26% 5.9 mph W9.5 kmh W 7.6 mph12.2 kmh 30.12 in1020.0 mb 0.00 in0.0 mm 0.00 in0.0 mm 0.00 in0.0 mm
06:30 AM 51.8°F11.0°C 18.0°F-7.8°C 26% 2.9 mph WNW4.7 kmh WNW 10.0 mph16.1 kmh 30.12 in1020.0 mb 0.00 in0.0 mm 0.00 in0.0 mm 0.00 in0.0 mm
06:45 AM 51.8°F11.0°C 18.0°F-7.8°C 26% 6.4 mph NW10.3 kmh NW 10.0 mph16.1 kmh 30.12 in1020.0 mb 0.00 in0.0 mm 0.00 in0.0 mm 0.00 in0.0 mm
07:00 AM 52.2°F11.2°C 18.3°F-7.6°C 26% 7.6 mph NW12.2 kmh NW 13.2 mph21.2 kmh 30.12 in1020.0 mb 0.00 in0.0 mm 0.00 in0.0 mm 0.00 in0.0 mm
07:15 AM 52.2°F11.2°C 19.1°F-7.2°C 27% 7.0 mph NW11.3 kmh NW 13.8 mph22.2 kmh 30.12 in1020.0 mb 0.00 in0.0 mm 0.00 in0.0 mm 0.00 in0.0 mm
07:30 AM 52.2°F11.2°C 19.1°F-7.2°C 27% 6.4 mph NW10.3 kmh NW 17.3 mph27.8 kmh 30.12 in1020.0 mb 0.00 in0.0 mm 0.00 in0.0 mm 0.00 in0.0 mm
07:45 AM 52.0°F11.1°C 19.8°F-6.8°C 28% 7.6 mph NNW12.2 kmh NNW 11.4 mph18.3 kmh 30.12 in1020.0 mb 0.00 in0.0 mm 0.00 in0.0 mm 0.00 in0.0 mm
08:00 AM 52.0°F11.1°C 21.5°F-5.8°C 30% 5.9 mph NNW9.5 kmh NNW 13.2 mph21.2 kmh 30.12 in1020.0 mb 0.00 in0.0 mm 0.00 in0.0 mm 0.00 in0.0 mm
08:15 AM 51.6°F10.9°C 23.4°F-4.8°C 33% 9.4 mph NW15.1 kmh NW 19.0 mph30.6 kmh 30.12 in1020.0 mb 0.00 in0.0 mm 0.00 in0.0 mm 0.00 in0.0 mm
08:30 AM 51.4°F10.8°C 25.3°F-3.7°C 36% 6.4 mph NW10.3 kmh NW 15.5 mph24.9 kmh 30.15 in1021.0 mb 0.00 in0.0 mm 0.00 in0.0 mm 0.00 in0.0 mm
08:45 AM 51.4°F10.8°C 25.3°F-3.7°C 36% 5.9 mph NW9.5 kmh NW 14.4 mph23.2 kmh 30.15 in1021.0 mb 0.00 in0.0 mm 0.00 in0.0 mm 0.00 in0.0 mm
09:00 AM 52.3°F11.3°C 25.5°F-3.6°C 35% 7.6 mph NW12.2 kmh NW 13.8 mph22.2 kmh 30.15 in1021.0 mb 0.00 in0.0 mm 0.00 in0.0 mm 0.00 in0.0 mm
09:15 AM 53.6°F12.0°C 25.9°F-3.4°C 34% 6.4 mph NW10.3 kmh NW 13.2 mph21.2 kmh 30.15 in1021.0 mb 0.00 in0.0 mm 0.00 in0.0 mm 0.00 in0.0 mm
09:30 AM 55.0°F12.8°C 24.9°F-3.9°C 31% 9.4 mph NNW15.1 kmh NNW 12.6 mph20.3 kmh 30.15 in1021.0 mb 0.00 in0.0 mm 0.00 in0.0 mm 0.00 in0.0 mm
09:45 AM 56.7°F13.7°C 26.3°F-3.2°C 31% Calm Calm 10.8 mph17.4 kmh 30.18 in1022.0 mb 0.00 in0.0 mm 0.00 in0.0 mm 0.00 in0.0 mm
10:00 AM 58.1°F14.5°C 26.0°F-3.3°C 29% 3.5 mph N5.6 kmh N 13.2 mph21.2 kmh 30.18 in1022.0 mb 0.00 in0.0 mm 0.00 in0.0 mm 0.00 in0.0 mm
10:15 AM 58.3°F14.6°C 25.3°F-3.7°C 28% 7.6 mph NW12.2 kmh NW 12.0 mph19.3 kmh 30.18 in1022.0 mb 0.00 in0.0 mm 0.00 in0.0 mm 0.00 in0.0 mm
10:30 AM 57.9°F14.4°C 25.8°F-3.4°C 29% 8.2 mph NW13.2 kmh NW 16.1 mph25.9 kmh 30.18 in1022.0 mb 0.00 in0.0 mm 0.00 in0.0 mm 0.00 in0.0 mm
10:45 AM 58.6°F14.8°C 26.4°F-3.1°C 29% 4.1 mph NNW6.6 kmh NNW 11.4 mph18.3 kmh 30.18 in1022.0 mb 0.00 in0.0 mm 0.00 in0.0 mm 0.00 in0.0 mm
11:00 AM 59.4°F15.2°C 25.3°F-3.7°C 27% 6.4 mph N10.3 kmh N 10.8 mph17.4 kmh 30.18 in1022.0 mb 0.00 in0.0 mm 0.00 in0.0 mm 0.00 in0.0 mm
11:15 AM 59.4°F15.2°C 24.4°F-4.2°C 26% 7.6 mph NW12.2 kmh NW 11.4 mph18.3 kmh 30.18 in1022.0 mb 0.00 in0.0 mm 0.00 in0.0 mm 0.00 in0.0 mm
11:30 AM 60.1°F15.6°C 24.1°F-4.4°C 25% 10.0 mph NW16.1 kmh NW 11.4 mph18.3 kmh 30.18 in1022.0 mb 0.00 in0.0 mm 0.00 in0.0 mm 0.00 in0.0 mm
11:45 AM 60.6°F15.9°C 24.6°F-4.1°C 25% 5.9 mph NW9.5 kmh NW 10.5 mph16.9 kmh 30.18 in1022.0 mb 0.00 in0.0 mm 0.00 in0.0 mm 0.00 in0.0 mm
12:00 PM 61.9°F16.6°C 24.7°F-4.1°C 24% 5.9 mph NNW9.5 kmh NNW 10.5 mph16.9 kmh 30.18 in1022.0 mb 0.00 in0.0 mm 0.00 in0.0 mm 0.00 in0.0 mm
12:15 PM 62.8°F17.1°C 25.4°F-3.7°C 24% 6.4 mph NE10.3 kmh NE 10.0 mph16.1 kmh 30.18 in1022.0 mb 0.00 in0.0 mm 0.00 in0.0 mm 0.00 in0.0 mm
12:30 PM 62.6°F17.0°C 22.1°F-5.5°C 21% 5.3 mph NE8.5 kmh NE 13.2 mph21.2 kmh 30.18 in1022.0 mb 0.00 in0.0 mm 0.00 in0.0 mm 0.00 in0.0 mm
12:45 PM 63.7°F17.6°C 23.0°F-5.0°C 21% 8.2 mph NE13.2 kmh NE 11.4 mph18.3 kmh 30.18 in1022.0 mb 0.00 in0.0 mm 0.00 in0.0 mm 0.00 in0.0 mm
01:00 PM 64.0°F17.8°C 19.6°F-6.9°C 18% 5.3 mph N8.5 kmh N 14.4 mph23.2 kmh 30.15 in1021.0 mb 0.00 in0.0 mm 0.00 in0.0 mm 0.00 in0.0 mm
01:15 PM 63.9°F17.7°C 19.5°F-6.9°C 18% 5.9 mph NW9.5 kmh NW 13.8 mph22.2 kmh 30.15 in1021.0 mb 0.00 in0.0 mm 0.00 in0.0 mm 0.00 in0.0 mm
01:30 PM 64.2°F17.9°C 23.4°F-4.8°C 21% 4.7 mph N7.6 kmh N 10.8 mph17.4 kmh 30.15 in1021.0 mb 0.00 in0.0 mm 0.00 in0.0 mm 0.00 in0.0 mm
01:45 PM 63.0°F17.2°C 22.4°F-5.3°C 21% 7.0 mph NW11.3 kmh NW 13.2 mph21.2 kmh 30.15 in1021.0 mb 0.00 in0.0 mm 0.00 in0.0 mm 0.00 in0.0 mm
02:00 PM 61.9°F16.6°C 25.6°F-3.6°C 25% 7.6 mph WNW12.2 kmh WNW 11.4 mph18.3 kmh 30.15 in1021.0 mb 0.00 in0.0 mm 0.00 in0.0 mm 0.00 in0.0 mm
02:15 PM 61.2°F16.2°C 25.0°F-3.9°C 25% 6.4 mph SSW10.3 kmh SSW 10.5 mph16.9 kmh 30.15 in1021.0 mb 0.00 in0.0 mm 0.00 in0.0 mm 0.00 in0.0 mm
02:30 PM 60.6°F15.9°C 25.5°F-3.6°C 26% 3.5 mph SSW5.6 kmh SSW 11.4 mph18.3 kmh 30.15 in1021.0 mb 0.00 in0.0 mm 0.00 in0.0 mm 0.00 in0.0 mm
02:45 PM 60.3°F15.7°C 26.1°F-3.3°C 27% 7.6 mph SW12.2 kmh SW 13.2 mph21.2 kmh 30.15 in1021.0 mb 0.00 in0.0 mm 0.00 in0.0 mm 0.00 in0.0 mm
03:00 PM 59.9°F15.5°C 26.7°F-2.9°C 28% 10.5 mph SSW16.9 kmh SSW 14.9 mph24.0 kmh 30.15 in1021.0 mb 0.00 in0.0 mm 0.00 in0.0 mm 0.00 in0.0 mm
03:15 PM 59.9°F15.5°C 27.5°F-2.5°C 29% 10.5 mph S16.9 kmh S 11.4 mph18.3 kmh 30.15 in1021.0 mb 0.00 in0.0 mm 0.00 in0.0 mm 0.00 in0.0 mm
03:30 PM 61.3°F16.3°C 27.9°F-2.3°C 28% 5.3 mph WSW8.5 kmh WSW 11.4 mph18.3 kmh 30.15 in1021.0 mb 0.00 in0.0 mm 0.00 in0.0 mm 0.00 in0.0 mm
03:45 PM 60.4°F15.8°C 28.0°F-2.2°C 29% 6.4 mph SE10.3 kmh SE 17.3 mph27.8 kmh 30.15 in1021.0 mb 0.00 in0.0 mm 0.00 in0.0 mm 0.00 in0.0 mm
04:00 PM 60.6°F15.9°C 27.3°F-2.6°C 28% 6.4 mph SW10.3 kmh SW 10.8 mph17.4 kmh 30.15 in1021.0 mb 0.00 in0.0 mm 0.00 in0.0 mm 0.00 in0.0 mm
04:15 PM 61.0°F16.1°C 27.6°F-2.4°C 28% 7.6 mph SW12.2 kmh SW 14.4 mph23.2 kmh 30.12 in1020.0 mb 0.00 in0.0 mm 0.00 in0.0 mm 0.00 in0.0 mm
04:30 PM 60.6°F15.9°C 29.0°F-1.7°C 30% 6.4 mph SSW10.3 kmh SSW 11.4 mph18.3 kmh 30.15 in1021.0 mb 0.00 in0.0 mm 0.00 in0.0 mm 0.00 in0.0 mm
04:45 PM 60.3°F15.7°C 27.8°F-2.3°C 29% 7.6 mph SW12.2 kmh SW 11.4 mph18.3 kmh 30.12 in1020.0 mb 0.00 in0.0 mm 0.00 in0.0 mm 0.00 in0.0 mm
05:00 PM 59.4°F15.2°C 27.9°F-2.3°C 30% 8.8 mph S14.2 kmh S 14.4 mph23.2 kmh 30.15 in1021.0 mb 0.00 in0.0 mm 0.00 in0.0 mm 0.00 in0.0 mm
05:15 PM 59.5°F15.3°C 29.6°F-1.3°C 32% 3.5 mph SSW5.6 kmh SSW 13.2 mph21.2 kmh 30.15 in1021.0 mb 0.00 in0.0 mm 0.00 in0.0 mm 0.00 in0.0 mm
05:30 PM 59.4°F15.2°C 29.5°F-1.4°C 32% 6.4 mph WSW10.3 kmh WSW 14.4 mph23.2 kmh 30.15 in1021.0 mb 0.00 in0.0 mm 0.00 in0.0 mm 0.00 in0.0 mm
05:45 PM 59.0°F15.0°C 29.2°F-1.6°C 32% 4.7 mph SW7.6 kmh SW 10.8 mph17.4 kmh 30.15 in1021.0 mb 0.00 in0.0 mm 0.00 in0.0 mm 0.00 in0.0 mm
06:00 PM 57.9°F14.4°C 29.7°F-1.3°C 34% Calm Calm 7.6 mph12.2 kmh 30.15 in1021.0 mb 0.00 in0.0 mm 0.00 in0.0 mm 0.00 in0.0 mm
06:15 PM 57.0°F13.9°C 29.6°F-1.3°C 35% 5.3 mph WNW8.5 kmh WNW 7.0 mph11.3 kmh 30.15 in1021.0 mb 0.00 in0.0 mm 0.00 in0.0 mm 0.00 in0.0 mm
06:30 PM 56.5°F13.6°C 29.8°F-1.2°C 36% Calm Calm -- 30.18 in1022.0 mb 0.00 in0.0 mm 0.00 in0.0 mm 0.00 in0.0 mm
06:45 PM 56.1°F13.4°C 30.2°F-1.0°C 37% Calm Calm -- 30.18 in1022.0 mb 0.00 in0.0 mm 0.00 in0.0 mm 0.00 in0.0 mm
07:00 PM 54.1°F12.3°C 30.3°F-0.9°C 40% Calm Calm -- 30.18 in1022.0 mb 0.00 in0.0 mm 0.00 in0.0 mm 0.00 in0.0 mm
07:15 PM 52.7°F11.5°C 31.4°F-0.3°C 44% Calm Calm -- 30.18 in1022.0 mb 0.00 in0.0 mm 0.00 in0.0 mm 0.00 in0.0 mm
07:30 PM 51.6°F10.9°C 32.0°F0.0°C 47% Calm Calm -- 30.18 in1022.0 mb 0.00 in0.0 mm 0.00 in0.0 mm 0.00 in0.0 mm
07:45 PM 50.5°F10.3°C 32.1°F0.1°C 49% 5.3 mph NW8.5 kmh NW 8.2 mph13.2 kmh 30.18 in1022.0 mb 0.00 in0.0 mm 0.00 in0.0 mm 0.00 in0.0 mm
08:00 PM 49.6°F9.8°C 31.7°F-0.2°C 50% Calm Calm -- 30.18 in1022.0 mb 0.00 in0.0 mm 0.00 in0.0 mm 0.00 in0.0 mm
08:15 PM 49.1°F9.5°C 31.7°F-0.2°C 51% 2.9 mph W4.7 kmh W 8.2 mph13.2 kmh 30.18 in1022.0 mb 0.00 in0.0 mm 0.00 in0.0 mm 0.00 in0.0 mm
08:30 PM 48.7°F9.3°C 31.9°F-0.1°C 52% 4.1 mph W6.6 kmh W 8.2 mph13.2 kmh 30.18 in1022.0 mb 0.00 in0.0 mm 0.00 in0.0 mm 0.00 in0.0 mm
08:45 PM 48.2°F9.0°C 31.4°F-0.3°C 52% 4.1 mph WNW6.6 kmh WNW 7.6 mph12.2 kmh 30.18 in1022.0 mb 0.00 in0.0 mm 0.00 in0.0 mm 0.00 in0.0 mm
09:00 PM 47.7°F8.7°C 31.8°F-0.1°C 54% 5.3 mph W8.5 kmh W 8.8 mph14.2 kmh 30.18 in1022.0 mb 0.00 in0.0 mm 0.00 in0.0 mm 0.00 in0.0 mm
09:15 PM 47.3°F8.5°C 31.9°F-0.1°C 55% 4.1 mph WNW6.6 kmh WNW 8.8 mph14.2 kmh 30.21 in1023.0 mb 0.00 in0.0 mm 0.00 in0.0 mm 0.00 in0.0 mm
09:30 PM 46.8°F8.2°C 31.9°F-0.1°C 56% 4.1 mph WNW6.6 kmh WNW 7.6 mph12.2 kmh 30.21 in1023.0 mb 0.00 in0.0 mm 0.00 in0.0 mm 0.00 in0.0 mm
09:45 PM 46.4°F8.0°C 32.0°F0.0°C 57% Calm Calm 8.8 mph14.2 kmh 30.21 in1023.0 mb 0.00 in0.0 mm 0.00 in0.0 mm 0.00 in0.0 mm
10:00 PM 45.5°F7.5°C 32.4°F0.2°C 60% 4.7 mph W7.6 kmh W 5.9 mph9.5 kmh 30.21 in1023.0 mb 0.00 in0.0 mm 0.00 in0.0 mm 0.00 in0.0 mm
10:15 PM 45.7°F7.6°C 33.4°F0.8°C 62% Calm Calm 3.5 mph5.6 kmh 30.21 in1023.0 mb 0.00 in0.0 mm 0.00 in0.0 mm 0.00 in0.0 mm
10:30 PM 45.5°F7.5°C 34.0°F1.1°C 64% Calm Calm -- 30.21 in1023.0 mb 0.00 in0.0 mm 0.00 in0.0 mm 0.00 in0.0 mm
10:45 PM 45.1°F7.3°C 34.1°F1.2°C 65% 5.3 mph W8.5 kmh W 6.4 mph10.3 kmh 30.21 in1023.0 mb 0.00 in0.0 mm 0.00 in0.0 mm 0.00 in0.0 mm
11:00 PM 45.1°F7.3°C 34.8°F1.6°C 67% 2.9 mph WNW4.7 kmh WNW 6.4 mph10.3 kmh 30.21 in1023.0 mb 0.00 in0.0 mm 0.00 in0.0 mm 0.00 in0.0 mm
11:15 PM 45.0°F7.2°C 35.8°F2.1°C 70% 4.7 mph WNW7.6 kmh WNW 7.0 mph11.3 kmh 30.21 in1023.0 mb 0.00 in0.0 mm 0.00 in0.0 mm 0.00 in0.0 mm
11:30 PM 45.0°F7.2°C 35.4°F1.9°C 69% Calm Calm 4.7 mph7.6 kmh 30.21 in1023.0 mb 0.00 in0.0 mm 0.00 in0.0 mm 0.00 in0.0 mm
11:45 PM 45.0°F7.2°C 35.4°F1.9°C 69% Calm Calm 4.7 mph7.6 kmh 30.21 in1023.0 mb 0.00 in0.0 mm 0.00 in0.0 mm 0.00 in0.0 mm